sensor_id;sensor_type;location;lat;lon;timestamp;P1;durP1;ratioP1;P2;durP2;ratioP2
42518;SDS011;28147;47.520;18.920;2023-06-05T00:00:27;3.08;;;1.50;;
42518;SDS011;28147;47.520;18.920;2023-06-05T00:02:53;2.95;;;1.70;;
42518;SDS011;28147;47.520;18.920;2023-06-05T00:05:19;2.63;;;1.58;;
42518;SDS011;28147;47.520;18.920;2023-06-05T00:07:44;4.07;;;1.98;;
42518;SDS011;28147;47.520;18.920;2023-06-05T00:10:10;3.95;;;1.60;;
42518;SDS011;28147;47.520;18.920;2023-06-05T00:12:35;3.17;;;1.60;;
42518;SDS011;28147;47.520;18.920;2023-06-05T00:15:01;4.05;;;1.58;;
42518;SDS011;28147;47.520;18.920;2023-06-05T00:17:27;5.40;;;2.00;;
42518;SDS011;28147;47.520;18.920;2023-06-05T00:19:53;4.13;;;1.75;;
42518;SDS011;28147;47.520;18.920;2023-06-05T00:22:18;3.47;;;1.60;;
42518;SDS011;28147;47.520;18.920;2023-06-05T00:24:44;3.15;;;1.58;;
42518;SDS011;28147;47.520;18.920;2023-06-05T00:27:10;4.65;;;1.75;;
42518;SDS011;28147;47.520;18.920;2023-06-05T00:29:35;3.70;;;1.70;;
42518;SDS011;28147;47.520;18.920;2023-06-05T00:32:01;2.60;;;1.35;;
42518;SDS011;28147;47.520;18.920;2023-06-05T00:34:26;3.08;;;1.70;;
42518;SDS011;28147;47.520;18.920;2023-06-05T00:36:52;3.45;;;1.58;;
42518;SDS011;28147;47.520;18.920;2023-06-05T00:39:17;3.13;;;1.52;;
42518;SDS011;28147;47.520;18.920;2023-06-05T00:41:44;3.15;;;1.63;;
42518;SDS011;28147;47.520;18.920;2023-06-05T00:44:10;2.75;;;1.33;;
42518;SDS011;28147;47.520;18.920;2023-06-05T00:46:36;1.98;;;1.40;;
42518;SDS011;28147;47.520;18.920;2023-06-05T00:49:02;3.42;;;1.40;;
42518;SDS011;28147;47.520;18.920;2023-06-05T00:51:27;2.10;;;1.35;;
42518;SDS011;28147;47.520;18.920;2023-06-05T00:53:53;2.70;;;1.40;;
42518;SDS011;28147;47.520;18.920;2023-06-05T00:56:19;2.05;;;1.30;;
42518;SDS011;28147;47.520;18.920;2023-06-05T00:58:46;2.10;;;1.40;;
42518;SDS011;28147;47.520;18.920;2023-06-05T01:01:12;2.65;;;1.60;;
42518;SDS011;28147;47.520;18.920;2023-06-05T01:03:40;2.65;;;1.52;;
42518;SDS011;28147;47.520;18.920;2023-06-05T01:06:05;2.60;;;1.50;;
42518;SDS011;28147;47.520;18.920;2023-06-05T01:08:34;4.60;;;1.58;;
42518;SDS011;28147;47.520;18.920;2023-06-05T01:11:16;3.97;;;1.83;;
42518;SDS011;28147;47.520;18.920;2023-06-05T01:13:54;4.25;;;1.48;;
42518;SDS011;28147;47.520;18.920;2023-06-05T01:16:27;2.08;;;1.58;;
42518;SDS011;28147;47.520;18.920;2023-06-05T01:18:59;2.10;;;1.40;;
42518;SDS011;28147;47.520;18.920;2023-06-05T01:21:31;2.63;;;1.40;;
42518;SDS011;28147;47.520;18.920;2023-06-05T01:23:57;2.65;;;1.40;;
42518;SDS011;28147;47.520;18.920;2023-06-05T01:26:27;4.88;;;1.50;;
42518;SDS011;28147;47.520;18.920;2023-06-05T01:29:17;2.70;;;1.45;;
42518;SDS011;28147;47.520;18.920;2023-06-05T01:31:51;3.50;;;1.63;;
42518;SDS011;28147;47.520;18.920;2023-06-05T01:34:21;2.53;;;1.30;;
42518;SDS011;28147;47.520;18.920;2023-06-05T01:36:49;3.50;;;1.55;;
42518;SDS011;28147;47.520;18.920;2023-06-05T01:39:16;3.35;;;1.80;;
42518;SDS011;28147;47.520;18.920;2023-06-05T01:41:43;2.60;;;1.50;;
42518;SDS011;28147;47.520;18.920;2023-06-05T01:44:09;3.38;;;1.70;;
42518;SDS011;28147;47.520;18.920;2023-06-05T01:46:37;2.80;;;1.45;;
42518;SDS011;28147;47.520;18.920;2023-06-05T01:49:03;3.78;;;1.65;;
42518;SDS011;28147;47.520;18.920;2023-06-05T01:51:30;4.75;;;1.67;;
42518;SDS011;28147;47.520;18.920;2023-06-05T01:53:56;3.92;;;2.03;;
42518;SDS011;28147;47.520;18.920;2023-06-05T01:56:22;2.60;;;1.50;;
42518;SDS011;28147;47.520;18.920;2023-06-05T01:58:49;2.00;;;1.60;;
42518;SDS011;28147;47.520;18.920;2023-06-05T02:01:14;5.32;;;1.95;;
42518;SDS011;28147;47.520;18.920;2023-06-05T02:03:44;3.97;;;1.67;;
42518;SDS011;28147;47.520;18.920;2023-06-05T02:06:13;4.50;;;1.50;;
42518;SDS011;28147;47.520;18.920;2023-06-05T02:08:40;4.88;;;1.95;;
42518;SDS011;28147;47.520;18.920;2023-06-05T02:11:05;2.40;;;1.50;;
42518;SDS011;28147;47.520;18.920;2023-06-05T02:13:35;2.92;;;1.55;;
42518;SDS011;28147;47.520;18.920;2023-06-05T02:16:04;4.47;;;1.73;;
42518;SDS011;28147;47.520;18.920;2023-06-05T02:18:30;2.17;;;1.30;;
42518;SDS011;28147;47.520;18.920;2023-06-05T02:20:55;2.70;;;1.50;;
42518;SDS011;28147;47.520;18.920;2023-06-05T02:23:21;3.63;;;1.50;;
42518;SDS011;28147;47.520;18.920;2023-06-05T02:25:48;2.97;;;1.38;;
42518;SDS011;28147;47.520;18.920;2023-06-05T02:28:13;3.25;;;1.25;;
42518;SDS011;28147;47.520;18.920;2023-06-05T02:30:39;4.22;;;1.73;;
42518;SDS011;28147;47.520;18.920;2023-06-05T02:35:36;5.05;;;1.70;;
42518;SDS011;28147;47.520;18.920;2023-06-05T02:38:02;3.13;;;1.52;;
42518;SDS011;28147;47.520;18.920;2023-06-05T02:40:30;3.60;;;1.70;;
42518;SDS011;28147;47.520;18.920;2023-06-05T02:42:55;3.85;;;1.73;;
42518;SDS011;28147;47.520;18.920;2023-06-05T02:45:20;2.05;;;1.33;;
42518;SDS011;28147;47.520;18.920;2023-06-05T02:47:47;2.70;;;1.50;;
42518;SDS011;28147;47.520;18.920;2023-06-05T02:50:13;3.67;;;1.92;;
42518;SDS011;28147;47.520;18.920;2023-06-05T02:52:39;3.10;;;1.70;;
42518;SDS011;28147;47.520;18.920;2023-06-05T02:55:05;4.43;;;1.60;;
42518;SDS011;28147;47.520;18.920;2023-06-05T02:57:31;2.92;;;1.58;;
42518;SDS011;28147;47.520;18.920;2023-06-05T02:59:58;3.17;;;1.65;;
42518;SDS011;28147;47.520;18.920;2023-06-05T03:02:24;4.00;;;1.38;;
42518;SDS011;28147;47.520;18.920;2023-06-05T03:04:52;3.67;;;1.50;;
42518;SDS011;28147;47.520;18.920;2023-06-05T03:07:18;3.75;;;1.42;;
42518;SDS011;28147;47.520;18.920;2023-06-05T03:09:44;4.43;;;2.00;;
42518;SDS011;28147;47.520;18.920;2023-06-05T03:12:10;4.07;;;1.48;;
42518;SDS011;28147;47.520;18.920;2023-06-05T03:14:35;3.00;;;1.52;;
42518;SDS011;28147;47.520;18.920;2023-06-05T03:17:01;2.90;;;1.75;;
42518;SDS011;28147;47.520;18.920;2023-06-05T03:19:28;5.82;;;1.50;;
42518;SDS011;28147;47.520;18.920;2023-06-05T03:21:54;2.90;;;1.42;;
42518;SDS011;28147;47.520;18.920;2023-06-05T03:24:19;3.15;;;1.70;;
42518;SDS011;28147;47.520;18.920;2023-06-05T03:26:45;3.20;;;1.38;;
42518;SDS011;28147;47.520;18.920;2023-06-05T03:29:11;4.10;;;1.80;;
42518;SDS011;28147;47.520;18.920;2023-06-05T03:31:36;2.75;;;1.85;;
42518;SDS011;28147;47.520;18.920;2023-06-05T03:34:02;2.50;;;1.48;;
42518;SDS011;28147;47.520;18.920;2023-06-05T03:36:29;3.40;;;1.98;;
42518;SDS011;28147;47.520;18.920;2023-06-05T03:38:55;3.35;;;1.35;;
42518;SDS011;28147;47.520;18.920;2023-06-05T03:41:22;4.00;;;1.80;;
42518;SDS011;28147;47.520;18.920;2023-06-05T03:43:47;4.13;;;1.90;;
42518;SDS011;28147;47.520;18.920;2023-06-05T03:46:14;3.13;;;1.67;;
42518;SDS011;28147;47.520;18.920;2023-06-05T03:48:43;4.15;;;1.70;;
42518;SDS011;28147;47.520;18.920;2023-06-05T03:51:08;3.13;;;1.52;;
42518;SDS011;28147;47.520;18.920;2023-06-05T03:53:34;4.20;;;1.90;;
42518;SDS011;28147;47.520;18.920;2023-06-05T03:55:59;3.90;;;1.63;;
42518;SDS011;28147;47.520;18.920;2023-06-05T03:58:25;4.03;;;2.00;;
42518;SDS011;28147;47.520;18.920;2023-06-05T04:00:51;2.70;;;1.52;;
42518;SDS011;28147;47.520;18.920;2023-06-05T04:03:19;3.10;;;1.90;;
42518;SDS011;28147;47.520;18.920;2023-06-05T04:05:45;4.38;;;1.98;;
42518;SDS011;28147;47.520;18.920;2023-06-05T04:08:11;4.80;;;2.03;;
42518;SDS011;28147;47.520;18.920;2023-06-05T04:10:37;2.88;;;1.50;;
42518;SDS011;28147;47.520;18.920;2023-06-05T04:13:03;3.72;;;1.85;;
42518;SDS011;28147;47.520;18.920;2023-06-05T04:15:28;3.85;;;1.60;;
42518;SDS011;28147;47.520;18.920;2023-06-05T04:17:54;3.42;;;1.50;;
42518;SDS011;28147;47.520;18.920;2023-06-05T04:20:20;3.08;;;1.70;;
42518;SDS011;28147;47.520;18.920;2023-06-05T04:22:45;6.13;;;1.75;;
42518;SDS011;28147;47.520;18.920;2023-06-05T04:25:11;3.38;;;1.70;;
42518;SDS011;28147;47.520;18.920;2023-06-05T04:27:37;2.90;;;1.50;;
42518;SDS011;28147;47.520;18.920;2023-06-05T04:30:06;3.55;;;2.05;;
42518;SDS011;28147;47.520;18.920;2023-06-05T04:32:33;3.28;;;1.45;;
42518;SDS011;28147;47.520;18.920;2023-06-05T04:35:02;4.20;;;1.75;;
42518;SDS011;28147;47.520;18.920;2023-06-05T04:37:28;3.08;;;1.48;;
42518;SDS011;28147;47.520;18.920;2023-06-05T04:39:53;4.43;;;1.67;;
42518;SDS011;28147;47.520;18.920;2023-06-05T04:42:20;4.95;;;1.85;;
42518;SDS011;28147;47.520;18.920;2023-06-05T04:44:53;4.28;;;1.80;;
42518;SDS011;28147;47.520;18.920;2023-06-05T04:47:21;4.35;;;2.00;;
42518;SDS011;28147;47.520;18.920;2023-06-05T04:49:47;3.33;;;2.00;;
42518;SDS011;28147;47.520;18.920;2023-06-05T04:52:14;3.83;;;1.92;;
42518;SDS011;28147;47.520;18.920;2023-06-05T04:54:39;4.15;;;1.65;;
42518;SDS011;28147;47.520;18.920;2023-06-05T04:57:05;5.30;;;1.75;;
42518;SDS011;28147;47.520;18.920;2023-06-05T04:59:31;3.17;;;1.80;;
42518;SDS011;28147;47.520;18.920;2023-06-05T05:01:57;3.75;;;2.03;;
42518;SDS011;28147;47.520;18.920;2023-06-05T05:04:23;2.92;;;1.67;;
42518;SDS011;28147;47.520;18.920;2023-06-05T05:06:48;4.75;;;1.80;;
42518;SDS011;28147;47.520;18.920;2023-06-05T05:09:16;2.67;;;1.60;;
42518;SDS011;28147;47.520;18.920;2023-06-05T05:11:42;3.20;;;2.05;;
42518;SDS011;28147;47.520;18.920;2023-06-05T05:14:08;7.43;;;1.90;;
42518;SDS011;28147;47.520;18.920;2023-06-05T05:16:33;5.40;;;2.45;;
42518;SDS011;28147;47.520;18.920;2023-06-05T05:18:59;2.88;;;1.50;;
42518;SDS011;28147;47.520;18.920;2023-06-05T05:21:24;3.00;;;1.75;;
42518;SDS011;28147;47.520;18.920;2023-06-05T05:23:50;3.60;;;1.80;;
42518;SDS011;28147;47.520;18.920;2023-06-05T05:26:16;4.95;;;2.15;;
42518;SDS011;28147;47.520;18.920;2023-06-05T05:28:41;2.92;;;1.63;;
42518;SDS011;28147;47.520;18.920;2023-06-05T05:31:07;3.42;;;2.00;;
42518;SDS011;28147;47.520;18.920;2023-06-05T05:33:32;3.85;;;2.00;;
42518;SDS011;28147;47.520;18.920;2023-06-05T05:35:58;3.33;;;2.05;;
42518;SDS011;28147;47.520;18.920;2023-06-05T05:38:23;4.88;;;1.90;;
42518;SDS011;28147;47.520;18.920;2023-06-05T05:40:49;4.30;;;1.88;;
42518;SDS011;28147;47.520;18.920;2023-06-05T05:43:15;5.88;;;1.60;;
42518;SDS011;28147;47.520;18.920;2023-06-05T05:45:41;4.18;;;1.98;;
42518;SDS011;28147;47.520;18.920;2023-06-05T05:48:08;3.85;;;2.25;;
42518;SDS011;28147;47.520;18.920;2023-06-05T05:50:34;3.15;;;1.98;;
42518;SDS011;28147;47.520;18.920;2023-06-05T05:53:00;2.95;;;1.90;;
42518;SDS011;28147;47.520;18.920;2023-06-05T05:55:25;5.10;;;2.00;;
42518;SDS011;28147;47.520;18.920;2023-06-05T05:57:50;7.88;;;2.13;;
42518;SDS011;28147;47.520;18.920;2023-06-05T06:00:16;3.03;;;1.70;;
42518;SDS011;28147;47.520;18.920;2023-06-05T06:02:42;4.50;;;2.38;;
42518;SDS011;28147;47.520;18.920;2023-06-05T06:05:08;5.13;;;2.22;;
42518;SDS011;28147;47.520;18.920;2023-06-05T06:07:34;3.33;;;1.52;;
42518;SDS011;28147;47.520;18.920;2023-06-05T06:10:00;5.68;;;2.20;;
42518;SDS011;28147;47.520;18.920;2023-06-05T06:12:26;5.35;;;2.72;;
42518;SDS011;28147;47.520;18.920;2023-06-05T06:14:53;3.83;;;2.60;;
42518;SDS011;28147;47.520;18.920;2023-06-05T06:17:19;5.28;;;2.15;;
42518;SDS011;28147;47.520;18.920;2023-06-05T06:19:45;5.88;;;2.47;;
42518;SDS011;28147;47.520;18.920;2023-06-05T06:22:12;5.80;;;2.20;;
42518;SDS011;28147;47.520;18.920;2023-06-05T06:24:41;6.05;;;2.60;;
42518;SDS011;28147;47.520;18.920;2023-06-05T06:27:08;4.45;;;2.40;;
42518;SDS011;28147;47.520;18.920;2023-06-05T06:29:36;7.45;;;2.78;;
42518;SDS011;28147;47.520;18.920;2023-06-05T06:32:02;5.30;;;2.35;;
42518;SDS011;28147;47.520;18.920;2023-06-05T06:34:28;4.53;;;2.30;;
42518;SDS011;28147;47.520;18.920;2023-06-05T06:36:54;4.38;;;2.35;;
42518;SDS011;28147;47.520;18.920;2023-06-05T06:39:20;5.80;;;2.42;;
42518;SDS011;28147;47.520;18.920;2023-06-05T06:41:49;7.10;;;2.33;;
42518;SDS011;28147;47.520;18.920;2023-06-05T06:44:16;4.60;;;2.25;;
42518;SDS011;28147;47.520;18.920;2023-06-05T06:46:42;12.13;;;3.05;;
42518;SDS011;28147;47.520;18.920;2023-06-05T06:49:07;3.05;;;1.85;;
42518;SDS011;28147;47.520;18.920;2023-06-05T06:51:33;4.05;;;2.30;;
42518;SDS011;28147;47.520;18.920;2023-06-05T06:53:58;4.97;;;2.70;;
42518;SDS011;28147;47.520;18.920;2023-06-05T06:56:24;4.38;;;2.30;;
42518;SDS011;28147;47.520;18.920;2023-06-05T06:58:50;4.72;;;2.65;;
42518;SDS011;28147;47.520;18.920;2023-06-05T07:01:17;3.97;;;2.10;;
42518;SDS011;28147;47.520;18.920;2023-06-05T07:03:44;4.80;;;2.40;;
42518;SDS011;28147;47.520;18.920;2023-06-05T07:06:11;5.15;;;2.17;;
42518;SDS011;28147;47.520;18.920;2023-06-05T07:08:37;6.90;;;2.42;;
42518;SDS011;28147;47.520;18.920;2023-06-05T07:11:02;4.10;;;2.40;;
42518;SDS011;28147;47.520;18.920;2023-06-05T07:13:28;5.90;;;2.20;;
42518;SDS011;28147;47.520;18.920;2023-06-05T07:15:54;5.45;;;2.15;;
42518;SDS011;28147;47.520;18.920;2023-06-05T07:18:20;5.53;;;2.20;;
42518;SDS011;28147;47.520;18.920;2023-06-05T07:20:46;3.83;;;2.25;;
42518;SDS011;28147;47.520;18.920;2023-06-05T07:23:12;6.30;;;3.13;;
42518;SDS011;28147;47.520;18.920;2023-06-05T07:25:39;9.07;;;3.00;;
42518;SDS011;28147;47.520;18.920;2023-06-05T07:28:08;4.38;;;2.15;;
42518;SDS011;28147;47.520;18.920;2023-06-05T07:30:35;4.18;;;2.30;;
42518;SDS011;28147;47.520;18.920;2023-06-05T07:33:01;6.45;;;2.95;;
42518;SDS011;28147;47.520;18.920;2023-06-05T07:35:27;5.65;;;2.30;;
42518;SDS011;28147;47.520;18.920;2023-06-05T07:37:52;6.68;;;2.42;;
42518;SDS011;28147;47.520;18.920;2023-06-05T07:40:18;5.38;;;2.55;;
42518;SDS011;28147;47.520;18.920;2023-06-05T07:42:45;4.35;;;2.33;;
42518;SDS011;28147;47.520;18.920;2023-06-05T07:45:11;4.10;;;2.30;;
42518;SDS011;28147;47.520;18.920;2023-06-05T07:47:36;4.13;;;2.25;;
42518;SDS011;28147;47.520;18.920;2023-06-05T07:50:02;5.72;;;2.55;;
42518;SDS011;28147;47.520;18.920;2023-06-05T07:52:30;5.10;;;2.50;;
42518;SDS011;28147;47.520;18.920;2023-06-05T07:54:56;5.00;;;2.63;;
42518;SDS011;28147;47.520;18.920;2023-06-05T07:57:22;7.60;;;3.17;;
42518;SDS011;28147;47.520;18.920;2023-06-05T07:59:52;6.78;;;2.45;;
42518;SDS011;28147;47.520;18.920;2023-06-05T08:02:19;7.60;;;3.38;;
42518;SDS011;28147;47.520;18.920;2023-06-05T08:04:44;5.47;;;1.88;;
42518;SDS011;28147;47.520;18.920;2023-06-05T08:07:10;9.65;;;2.90;;
42518;SDS011;28147;47.520;18.920;2023-06-05T08:09:35;5.68;;;2.83;;
42518;SDS011;28147;47.520;18.920;2023-06-05T08:12:02;4.18;;;2.25;;
42518;SDS011;28147;47.520;18.920;2023-06-05T08:14:30;7.05;;;2.50;;
42518;SDS011;28147;47.520;18.920;2023-06-05T08:16:56;6.10;;;2.70;;
42518;SDS011;28147;47.520;18.920;2023-06-05T08:19:22;3.92;;;2.05;;
42518;SDS011;28147;47.520;18.920;2023-06-05T08:21:51;5.05;;;2.50;;
42518;SDS011;28147;47.520;18.920;2023-06-05T08:24:21;4.68;;;2.58;;
42518;SDS011;28147;47.520;18.920;2023-06-05T08:26:48;5.03;;;2.40;;
42518;SDS011;28147;47.520;18.920;2023-06-05T08:29:13;5.13;;;2.45;;
42518;SDS011;28147;47.520;18.920;2023-06-05T08:31:39;5.70;;;2.75;;
42518;SDS011;28147;47.520;18.920;2023-06-05T08:34:05;7.35;;;3.10;;
42518;SDS011;28147;47.520;18.920;2023-06-05T08:36:30;7.68;;;2.60;;
42518;SDS011;28147;47.520;18.920;2023-06-05T08:38:57;4.82;;;2.55;;
42518;SDS011;28147;47.520;18.920;2023-06-05T08:41:23;6.55;;;2.75;;
42518;SDS011;28147;47.520;18.920;2023-06-05T08:43:50;4.82;;;2.65;;
42518;SDS011;28147;47.520;18.920;2023-06-05T08:46:16;4.35;;;2.22;;
42518;SDS011;28147;47.520;18.920;2023-06-05T08:48:43;4.05;;;2.10;;
42518;SDS011;28147;47.520;18.920;2023-06-05T08:51:13;7.90;;;2.47;;
42518;SDS011;28147;47.520;18.920;2023-06-05T08:53:41;5.22;;;2.50;;
42518;SDS011;28147;47.520;18.920;2023-06-05T08:56:11;4.60;;;2.55;;
42518;SDS011;28147;47.520;18.920;2023-06-05T08:58:38;7.95;;;2.63;;
42518;SDS011;28147;47.520;18.920;2023-06-05T09:01:04;6.53;;;2.55;;
42518;SDS011;28147;47.520;18.920;2023-06-05T09:03:32;5.15;;;2.50;;
42518;SDS011;28147;47.520;18.920;2023-06-05T09:05:58;4.60;;;2.65;;
42518;SDS011;28147;47.520;18.920;2023-06-05T09:08:33;4.95;;;2.10;;
42518;SDS011;28147;47.520;18.920;2023-06-05T09:13:49;3.40;;;2.13;;
42518;SDS011;28147;47.520;18.920;2023-06-05T09:16:15;7.07;;;3.22;;
42518;SDS011;28147;47.520;18.920;2023-06-05T09:18:54;11.50;;;3.43;;
42518;SDS011;28147;47.520;18.920;2023-06-05T09:21:22;5.55;;;2.63;;
42518;SDS011;28147;47.520;18.920;2023-06-05T09:23:54;4.93;;;2.15;;
42518;SDS011;28147;47.520;18.920;2023-06-05T09:29:19;4.70;;;2.13;;
42518;SDS011;28147;47.520;18.920;2023-06-05T09:31:48;5.70;;;2.28;;
42518;SDS011;28147;47.520;18.920;2023-06-05T09:34:21;4.72;;;2.38;;
42518;SDS011;28147;47.520;18.920;2023-06-05T09:36:50;4.30;;;2.13;;
42518;SDS011;28147;47.520;18.920;2023-06-05T09:39:17;8.93;;;2.40;;
42518;SDS011;28147;47.520;18.920;2023-06-05T09:41:45;4.32;;;2.60;;
42518;SDS011;28147;47.520;18.920;2023-06-05T09:44:12;4.55;;;2.30;;
42518;SDS011;28147;47.520;18.920;2023-06-05T09:46:50;5.47;;;2.85;;
42518;SDS011;28147;47.520;18.920;2023-06-05T09:49:29;4.32;;;2.25;;
42518;SDS011;28147;47.520;18.920;2023-06-05T09:51:55;6.35;;;2.88;;
42518;SDS011;28147;47.520;18.920;2023-06-05T09:54:22;6.13;;;2.72;;
42518;SDS011;28147;47.520;18.920;2023-06-05T09:56:50;7.13;;;3.10;;
42518;SDS011;28147;47.520;18.920;2023-06-05T09:59:19;4.10;;;2.15;;
42518;SDS011;28147;47.520;18.920;2023-06-05T10:01:47;6.80;;;2.67;;
42518;SDS011;28147;47.520;18.920;2023-06-05T10:04:15;7.82;;;2.33;;
42518;SDS011;28147;47.520;18.920;2023-06-05T10:06:45;5.28;;;1.98;;
42518;SDS011;28147;47.520;18.920;2023-06-05T10:09:13;4.13;;;2.47;;
42518;SDS011;28147;47.520;18.920;2023-06-05T10:11:39;5.97;;;2.85;;
42518;SDS011;28147;47.520;18.920;2023-06-05T10:14:06;5.82;;;2.88;;
42518;SDS011;28147;47.520;18.920;2023-06-05T10:16:34;5.20;;;2.97;;
42518;SDS011;28147;47.520;18.920;2023-06-05T10:18:59;6.20;;;3.08;;
42518;SDS011;28147;47.520;18.920;2023-06-05T10:21:25;4.35;;;2.35;;
42518;SDS011;28147;47.520;18.920;2023-06-05T10:23:53;5.70;;;2.50;;
42518;SDS011;28147;47.520;18.920;2023-06-05T10:26:33;5.40;;;2.22;;
42518;SDS011;28147;47.520;18.920;2023-06-05T10:38:18;5.28;;;2.35;;
42518;SDS011;28147;47.520;18.920;2023-06-05T10:40:51;7.13;;;2.63;;
42518;SDS011;28147;47.520;18.920;2023-06-05T10:45:56;4.18;;;2.38;;
42518;SDS011;28147;47.520;18.920;2023-06-05T10:59:17;5.43;;;2.70;;
42518;SDS011;28147;47.520;18.920;2023-06-05T11:07:20;4.57;;;2.40;;
42518;SDS011;28147;47.520;18.920;2023-06-05T11:15:05;3.80;;;2.00;;
42518;SDS011;28147;47.520;18.920;2023-06-05T11:17:32;5.10;;;2.15;;
42518;SDS011;28147;47.520;18.920;2023-06-05T11:19:59;3.65;;;1.77;;
42518;SDS011;28147;47.520;18.920;2023-06-05T11:22:25;3.60;;;2.03;;
42518;SDS011;28147;47.520;18.920;2023-06-05T11:27:48;2.30;;;1.52;;
42518;SDS011;28147;47.520;18.920;2023-06-05T11:30:16;5.28;;;1.80;;
42518;SDS011;28147;47.520;18.920;2023-06-05T11:32:43;7.18;;;1.90;;
42518;SDS011;28147;47.520;18.920;2023-06-05T11:35:09;3.20;;;2.00;;
42518;SDS011;28147;47.520;18.920;2023-06-05T11:37:36;5.57;;;1.70;;
42518;SDS011;28147;47.520;18.920;2023-06-05T11:40:02;4.30;;;2.17;;
42518;SDS011;28147;47.520;18.920;2023-06-05T11:42:38;4.80;;;1.52;;
42518;SDS011;28147;47.520;18.920;2023-06-05T11:45:13;4.45;;;1.80;;
42518;SDS011;28147;47.520;18.920;2023-06-05T11:47:39;4.95;;;2.05;;
42518;SDS011;28147;47.520;18.920;2023-06-05T11:52:33;4.93;;;2.13;;
42518;SDS011;28147;47.520;18.920;2023-06-05T11:57:43;3.92;;;1.73;;
42518;SDS011;28147;47.520;18.920;2023-06-05T12:00:10;2.65;;;1.73;;
42518;SDS011;28147;47.520;18.920;2023-06-05T12:02:40;7.05;;;2.13;;
42518;SDS011;28147;47.520;18.920;2023-06-05T12:05:08;5.38;;;2.25;;
42518;SDS011;28147;47.520;18.920;2023-06-05T12:07:34;3.55;;;1.67;;
42518;SDS011;28147;47.520;18.920;2023-06-05T12:10:05;5.47;;;1.88;;
42518;SDS011;28147;47.520;18.920;2023-06-05T12:12:32;2.95;;;2.00;;
42518;SDS011;28147;47.520;18.920;2023-06-05T12:15:12;3.92;;;1.83;;
42518;SDS011;28147;47.520;18.920;2023-06-05T12:17:39;5.43;;;2.10;;
42518;SDS011;28147;47.520;18.920;2023-06-05T12:20:04;9.35;;;2.10;;
42518;SDS011;28147;47.520;18.920;2023-06-05T12:22:33;3.08;;;1.60;;
42518;SDS011;28147;47.520;18.920;2023-06-05T12:27:41;3.65;;;1.65;;
42518;SDS011;28147;47.520;18.920;2023-06-05T12:30:07;4.55;;;1.80;;
42518;SDS011;28147;47.520;18.920;2023-06-05T12:32:32;5.72;;;2.08;;
42518;SDS011;28147;47.520;18.920;2023-06-05T12:34:58;3.00;;;1.73;;
42518;SDS011;28147;47.520;18.920;2023-06-05T12:37:25;4.57;;;1.58;;
42518;SDS011;28147;47.520;18.920;2023-06-05T12:39:54;3.50;;;1.90;;
42518;SDS011;28147;47.520;18.920;2023-06-05T12:42:20;7.65;;;2.25;;
42518;SDS011;28147;47.520;18.920;2023-06-05T12:44:45;4.13;;;2.00;;
42518;SDS011;28147;47.520;18.920;2023-06-05T12:47:11;6.30;;;2.03;;
42518;SDS011;28147;47.520;18.920;2023-06-05T12:49:36;4.70;;;2.03;;
42518;SDS011;28147;47.520;18.920;2023-06-05T12:52:02;5.22;;;2.10;;
42518;SDS011;28147;47.520;18.920;2023-06-05T12:54:28;3.47;;;1.73;;
42518;SDS011;28147;47.520;18.920;2023-06-05T12:56:55;4.55;;;2.00;;
42518;SDS011;28147;47.520;18.920;2023-06-05T12:59:21;4.70;;;1.88;;
42518;SDS011;28147;47.520;18.920;2023-06-05T13:01:47;6.07;;;1.80;;
42518;SDS011;28147;47.520;18.920;2023-06-05T13:04:12;3.42;;;1.92;;
42518;SDS011;28147;47.520;18.920;2023-06-05T13:06:37;3.78;;;2.20;;
42518;SDS011;28147;47.520;18.920;2023-06-05T13:09:03;4.13;;;2.10;;
42518;SDS011;28147;47.520;18.920;2023-06-05T13:11:29;7.35;;;2.42;;
42518;SDS011;28147;47.520;18.920;2023-06-05T13:13:55;3.03;;;1.80;;
42518;SDS011;28147;47.520;18.920;2023-06-05T13:16:20;3.28;;;1.83;;
42518;SDS011;28147;47.520;18.920;2023-06-05T13:18:45;4.75;;;1.95;;
42518;SDS011;28147;47.520;18.920;2023-06-05T13:21:11;5.18;;;2.00;;
42518;SDS011;28147;47.520;18.920;2023-06-05T13:23:36;3.42;;;1.67;;
42518;SDS011;28147;47.520;18.920;2023-06-05T13:26:02;2.90;;;1.52;;
42518;SDS011;28147;47.520;18.920;2023-06-05T13:28:28;4.15;;;2.05;;
42518;SDS011;28147;47.520;18.920;2023-06-05T13:30:54;3.22;;;1.83;;
42518;SDS011;28147;47.520;18.920;2023-06-05T13:33:19;4.28;;;2.10;;
42518;SDS011;28147;47.520;18.920;2023-06-05T13:35:45;3.97;;;2.20;;
42518;SDS011;28147;47.520;18.920;2023-06-05T13:38:11;4.40;;;2.03;;
42518;SDS011;28147;47.520;18.920;2023-06-05T13:40:36;4.88;;;2.17;;
42518;SDS011;28147;47.520;18.920;2023-06-05T13:43:02;3.00;;;1.85;;
42518;SDS011;28147;47.520;18.920;2023-06-05T13:45:27;6.40;;;2.08;;
42518;SDS011;28147;47.520;18.920;2023-06-05T13:47:52;7.28;;;3.03;;
42518;SDS011;28147;47.520;18.920;2023-06-05T13:50:18;3.75;;;2.25;;
42518;SDS011;28147;47.520;18.920;2023-06-05T13:52:47;3.83;;;2.33;;
42518;SDS011;28147;47.520;18.920;2023-06-05T13:55:12;2.50;;;1.83;;
42518;SDS011;28147;47.520;18.920;2023-06-05T13:57:38;3.58;;;1.98;;
42518;SDS011;28147;47.520;18.920;2023-06-05T14:00:04;4.72;;;2.15;;
42518;SDS011;28147;47.520;18.920;2023-06-05T14:02:31;3.45;;;1.80;;
42518;SDS011;28147;47.520;18.920;2023-06-05T14:04:57;2.88;;;1.75;;
42518;SDS011;28147;47.520;18.920;2023-06-05T14:07:23;2.90;;;2.00;;
42518;SDS011;28147;47.520;18.920;2023-06-05T14:09:48;3.25;;;1.80;;
42518;SDS011;28147;47.520;18.920;2023-06-05T14:12:14;3.72;;;1.92;;
42518;SDS011;28147;47.520;18.920;2023-06-05T14:14:40;4.53;;;2.00;;
42518;SDS011;28147;47.520;18.920;2023-06-05T14:17:05;3.55;;;1.95;;
42518;SDS011;28147;47.520;18.920;2023-06-05T14:19:32;3.25;;;1.83;;
42518;SDS011;28147;47.520;18.920;2023-06-05T14:21:57;3.60;;;1.77;;
42518;SDS011;28147;47.520;18.920;2023-06-05T14:24:23;3.75;;;2.00;;
42518;SDS011;28147;47.520;18.920;2023-06-05T14:26:49;2.63;;;1.65;;
42518;SDS011;28147;47.520;18.920;2023-06-05T14:29:14;6.85;;;2.75;;
42518;SDS011;28147;47.520;18.920;2023-06-05T14:31:40;3.47;;;2.00;;
42518;SDS011;28147;47.520;18.920;2023-06-05T14:34:05;4.18;;;2.20;;
42518;SDS011;28147;47.520;18.920;2023-06-05T14:36:31;5.90;;;1.70;;
42518;SDS011;28147;47.520;18.920;2023-06-05T14:38:56;5.13;;;2.38;;
42518;SDS011;28147;47.520;18.920;2023-06-05T14:41:22;3.50;;;2.40;;
42518;SDS011;28147;47.520;18.920;2023-06-05T14:43:48;2.72;;;1.50;;
42518;SDS011;28147;47.520;18.920;2023-06-05T14:46:14;3.13;;;1.70;;
42518;SDS011;28147;47.520;18.920;2023-06-05T14:48:39;3.38;;;1.75;;
42518;SDS011;28147;47.520;18.920;2023-06-05T14:51:06;3.40;;;1.80;;
42518;SDS011;28147;47.520;18.920;2023-06-05T14:53:32;4.88;;;1.83;;
42518;SDS011;28147;47.520;18.920;2023-06-05T14:55:58;4.13;;;2.03;;
42518;SDS011;28147;47.520;18.920;2023-06-05T14:58:23;5.22;;;1.90;;
42518;SDS011;28147;47.520;18.920;2023-06-05T15:00:50;5.95;;;2.05;;
42518;SDS011;28147;47.520;18.920;2023-06-05T15:03:15;2.42;;;1.45;;
42518;SDS011;28147;47.520;18.920;2023-06-05T15:05:41;4.90;;;2.35;;
42518;SDS011;28147;47.520;18.920;2023-06-05T15:08:07;3.65;;;1.70;;
42518;SDS011;28147;47.520;18.920;2023-06-05T15:10:32;3.67;;;2.08;;
42518;SDS011;28147;47.520;18.920;2023-06-05T15:12:57;3.53;;;1.60;;
42518;SDS011;28147;47.520;18.920;2023-06-05T15:15:23;6.45;;;2.20;;
42518;SDS011;28147;47.520;18.920;2023-06-05T15:17:49;3.22;;;1.90;;
42518;SDS011;28147;47.520;18.920;2023-06-05T15:20:17;4.72;;;2.67;;
42518;SDS011;28147;47.520;18.920;2023-06-05T15:22:43;3.95;;;2.13;;